createdAt,value
2019-01-09T00:01:45.290Z,91.80
2019-01-09T00:04:14.698Z,92.00
2019-01-09T00:06:44.022Z,92.50
2019-01-09T00:09:13.412Z,93.20
2019-01-09T00:11:42.897Z,93.50
2019-01-09T00:14:12.536Z,93.70
2019-01-09T00:16:41.920Z,94.10
2019-01-09T00:19:11.460Z,94.20
2019-01-09T00:21:40.835Z,94.10
2019-01-09T00:24:10.260Z,93.90
2019-01-09T00:26:39.646Z,93.80
2019-01-09T00:29:09.055Z,93.70
2019-01-09T00:31:38.480Z,93.60
2019-01-09T00:34:07.959Z,93.60
2019-01-09T00:36:37.292Z,93.50
2019-01-09T00:39:07.681Z,93.50
2019-01-09T00:41:37.179Z,93.50
2019-01-09T00:44:06.584Z,93.60
2019-01-09T00:46:36.032Z,93.70
2019-01-09T00:49:05.539Z,93.80
2019-01-09T00:51:34.982Z,93.90
2019-01-09T00:54:04.537Z,94.40
2019-01-09T00:56:34.017Z,94.40
2019-01-09T00:59:03.443Z,94.40
2019-01-09T01:01:32.810Z,94.50
2019-01-09T01:04:25.314Z,94.40
2019-01-09T01:07:46.508Z,94.30
2019-01-09T01:11:11.307Z,94.20
2019-01-09T01:14:02.371Z,94.20
2019-01-09T01:17:18.761Z,94.30
2019-01-09T01:20:36.999Z,94.40
2019-01-09T01:23:43.273Z,94.40
2019-01-09T01:27:07.971Z,94.50
2019-01-09T01:30:14.523Z,94.60
2019-01-09T01:33:22.630Z,94.60
2019-01-09T01:36:39.001Z,94.70
2019-01-09T01:39:49.830Z,94.80
2019-01-09T01:43:02.224Z,94.80
2019-01-09T01:46:04.778Z,94.80
2019-01-09T01:49:16.970Z,94.80
2019-01-09T01:52:24.433Z,94.90
2019-01-09T01:55:46.942Z,94.90
2019-01-09T01:59:03.433Z,94.90
2019-01-09T02:02:00.099Z,95.00
2019-01-09T02:05:03.376Z,94.90
2019-01-09T02:08:22.817Z,94.90
2019-01-09T02:11:15.203Z,94.90
2019-01-09T02:14:32.132Z,95.00
2019-01-09T02:17:37.383Z,95.00
2019-01-09T02:21:09.326Z,95.00
2019-01-09T02:24:17.548Z,94.80
2019-01-09T02:26:58.803Z,94.80
2019-01-09T02:30:09.326Z,94.90
2019-01-09T02:32:42.101Z,94.90
2019-01-09T02:35:11.507Z,94.90
2019-01-09T02:37:40.918Z,94.90
2019-01-09T02:40:10.370Z,95.00
2019-01-09T02:42:39.798Z,94.90
2019-01-09T02:45:09.210Z,94.70
2019-01-09T02:47:38.616Z,94.70
2019-01-09T02:50:09.042Z,94.70
2019-01-09T02:52:38.474Z,94.70
2019-01-09T02:55:08.560Z,94.60
2019-01-09T02:57:37.891Z,94.50
2019-01-09T03:00:14.814Z,94.40
2019-01-09T03:02:44.144Z,94.30
2019-01-09T03:05:13.503Z,94.30
2019-01-09T03:07:43.003Z,94.40
2019-01-09T03:10:12.401Z,94.20
2019-01-09T03:12:41.792Z,94.20
2019-01-09T03:15:11.257Z,94.10
2019-01-09T03:17:40.612Z,94.00
2019-01-09T03:20:09.926Z,93.90
2019-01-09T03:22:39.363Z,93.80
2019-01-09T03:25:08.843Z,93.60
2019-01-09T03:27:38.272Z,93.40
2019-01-09T03:30:08.652Z,93.20
2019-01-09T03:32:41.186Z,93.10
2019-01-09T03:35:10.591Z,93.30
2019-01-09T03:37:43.205Z,93.30
2019-01-09T03:40:12.599Z,93.20
2019-01-09T03:42:42.035Z,93.20
2019-01-09T03:45:11.665Z,93.10
2019-01-09T03:47:41.040Z,93.20
2019-01-09T03:50:10.469Z,93.00
2019-01-09T03:52:39.868Z,92.90
2019-01-09T03:55:09.252Z,92.90
2019-01-09T03:57:38.727Z,92.90
2019-01-09T04:00:08.225Z,93.00
2019-01-09T04:02:37.646Z,93.30
2019-01-09T04:05:07.048Z,93.20
2019-01-09T04:07:36.539Z,93.30
2019-01-09T04:10:06.689Z,93.30
2019-01-09T04:12:36.068Z,93.20
2019-01-09T04:15:06.760Z,93.20
2019-01-09T04:17:36.195Z,93.10
2019-01-09T04:20:05.919Z,93.00
2019-01-09T04:22:35.364Z,93.10
2019-01-09T04:25:04.842Z,93.20
2019-01-09T04:27:34.235Z,92.80
2019-01-09T04:30:03.786Z,92.60
2019-01-09T04:32:33.201Z,92.60
2019-01-09T04:35:02.695Z,92.60
2019-01-09T04:37:32.161Z,92.30
2019-01-09T04:40:01.537Z,91.90
2019-01-09T04:42:30.959Z,91.90
2019-01-09T04:45:00.369Z,91.90
2019-01-09T04:47:29.769Z,91.70
2019-01-09T04:49:59.159Z,92.00
2019-01-09T04:52:31.708Z,91.80
2019-01-09T04:55:01.092Z,91.10
2019-01-09T04:57:30.544Z,91.30
2019-01-09T05:00:00.042Z,91.00
2019-01-09T05:02:29.492Z,91.00
2019-01-09T05:04:59.047Z,90.90
2019-01-09T05:07:28.506Z,90.90
2019-01-09T05:09:57.875Z,91.10
2019-01-09T05:12:27.314Z,91.00
2019-01-09T05:14:56.863Z,90.90
2019-01-09T05:17:26.302Z,90.90
2019-01-09T05:19:55.734Z,90.80
2019-01-09T05:22:25.201Z,90.70
2019-01-09T05:24:54.592Z,90.50
2019-01-09T05:27:24.011Z,90.40
2019-01-09T05:29:56.759Z,90.40
2019-01-09T05:32:26.161Z,90.40
2019-01-09T05:34:55.578Z,90.30
2019-01-09T05:37:25.121Z,90.30
2019-01-09T05:39:54.481Z,90.40
2019-01-09T05:42:23.857Z,90.20
2019-01-09T05:44:53.288Z,90.00
2019-01-09T05:47:22.627Z,90.00
2019-01-09T05:49:52.049Z,89.30
2019-01-09T05:52:21.521Z,88.80
2019-01-09T05:54:50.934Z,88.40
2019-01-09T05:57:20.271Z,88.70
2019-01-09T05:59:49.727Z,87.30
2019-01-09T06:02:19.181Z,87.90
2019-01-09T06:04:48.587Z,88.40
2019-01-09T06:07:21.167Z,89.10
2019-01-09T06:09:50.609Z,88.50
2019-01-09T06:12:19.940Z,88.00
2019-01-09T06:14:49.364Z,88.50
2019-01-09T06:17:18.716Z,89.10
2019-01-09T06:19:48.152Z,89.30
2019-01-09T06:22:17.649Z,89.00
2019-01-09T06:24:47.099Z,89.30
2019-01-09T06:27:16.491Z,89.30
2019-01-09T06:29:45.932Z,90.00
2019-01-09T06:32:15.386Z,89.30
2019-01-09T06:34:44.822Z,89.00
2019-01-09T06:37:14.334Z,87.70
2019-01-09T06:39:43.697Z,87.90
2019-01-09T06:42:13.045Z,86.90
2019-01-09T06:44:42.520Z,86.10
2019-01-09T06:47:11.947Z,85.30
2019-01-09T06:49:41.420Z,85.80
2019-01-09T06:52:10.895Z,86.00
2019-01-09T06:54:40.380Z,85.20
2019-01-09T06:57:09.746Z,84.90
2019-01-09T06:59:39.302Z,84.00
2019-01-09T07:02:07.981Z,83.20
2019-01-09T07:04:37.318Z,82.10
2019-01-09T07:07:06.867Z,80.90
2019-01-09T07:09:36.256Z,80.90
2019-01-09T07:12:05.602Z,81.80
2019-01-09T07:14:38.272Z,81.60
2019-01-09T07:17:07.631Z,81.80
2019-01-09T07:19:36.956Z,80.80
2019-01-09T07:22:06.473Z,81.70
2019-01-09T07:24:35.923Z,82.10
2019-01-09T07:27:05.375Z,81.90
2019-01-09T07:29:35.117Z,82.20
2019-01-09T07:32:04.577Z,82.30
2019-01-09T07:34:34.052Z,82.70
2019-01-09T07:37:06.652Z,81.30
2019-01-09T07:39:36.044Z,82.10
2019-01-09T07:42:05.462Z,82.20
2019-01-09T07:44:34.968Z,82.10
2019-01-09T07:47:04.389Z,81.90
2019-01-09T07:49:33.843Z,81.50
2019-01-09T07:52:03.369Z,80.30
2019-01-09T07:54:32.829Z,80.20
2019-01-09T07:57:02.236Z,79.70
2019-01-09T07:59:31.714Z,78.90
2019-01-09T08:02:01.145Z,78.30
2019-01-09T08:04:32.476Z,78.10
2019-01-09T08:07:01.773Z,79.10
2019-01-09T08:09:31.095Z,78.60
2019-01-09T08:12:00.457Z,77.90
2019-01-09T08:14:29.863Z,77.50
2019-01-09T08:16:59.275Z,77.50
2019-01-09T08:19:28.609Z,76.80
2019-01-09T08:24:32.414Z,76.70
2019-01-09T08:27:01.844Z,76.40
2019-01-09T08:29:31.281Z,76.20
2019-01-09T08:32:00.702Z,74.40
2019-01-09T08:34:30.042Z,73.50
2019-01-09T08:36:59.458Z,71.70
2019-01-09T08:39:32.101Z,71.80
2019-01-09T08:42:01.622Z,71.30
2019-01-09T08:44:31.056Z,70.80
2019-01-09T08:47:00.427Z,70.60
2019-01-09T08:49:29.860Z,69.10
2019-01-09T08:51:59.235Z,68.10
2019-01-09T08:54:28.687Z,68.10
2019-01-09T08:56:58.103Z,67.30
2019-01-09T08:59:27.561Z,67.70
2019-01-09T09:01:57.015Z,67.90
2019-01-09T09:04:26.438Z,67.50
2019-01-09T09:06:55.874Z,65.20
2019-01-09T09:09:26.845Z,63.20
2019-01-09T09:11:56.381Z,63.70
2019-01-09T09:14:29.106Z,64.70
2019-01-09T09:16:58.672Z,66.00
2019-01-09T09:19:28.184Z,67.90
2019-01-09T09:21:57.813Z,66.10
2019-01-09T09:24:27.302Z,64.20
2019-01-09T09:26:56.705Z,63.90
2019-01-09T09:29:26.197Z,62.10
2019-01-09T09:31:55.588Z,61.60
2019-01-09T09:34:25.012Z,60.30
2019-01-09T09:36:54.459Z,58.80
2019-01-09T09:39:23.879Z,59.10
2019-01-09T09:41:53.314Z,60.00
2019-01-09T09:44:22.687Z,59.80
2019-01-09T09:46:52.059Z,60.10
2019-01-09T09:49:21.476Z,58.80
2019-01-09T09:51:50.954Z,58.70
2019-01-09T09:54:20.325Z,58.70
2019-01-09T09:56:49.697Z,58.30
2019-01-09T09:59:19.157Z,58.40
2019-01-09T10:01:48.535Z,58.10
2019-01-09T10:04:17.960Z,56.10
2019-01-09T10:06:47.377Z,56.60
2019-01-09T10:09:16.763Z,56.80
2019-01-09T10:11:46.183Z,56.30
2019-01-09T10:14:15.669Z,56.80
2019-01-09T10:16:45.121Z,56.70
2019-01-09T10:19:14.511Z,55.90
2019-01-09T10:21:43.931Z,55.70
2019-01-09T10:24:13.275Z,55.20
2019-01-09T10:26:42.647Z,55.70
2019-01-09T10:29:12.113Z,55.90
2019-01-09T10:31:41.627Z,55.30
2019-01-09T10:34:11.011Z,55.00
2019-01-09T10:39:15.916Z,55.00
2019-01-09T10:41:45.342Z,54.30
2019-01-09T10:44:18.920Z,54.10
2019-01-09T10:46:45.815Z,53.90
2019-01-09T10:49:15.189Z,54.20
2019-01-09T10:51:44.682Z,53.80
2019-01-09T10:54:33.975Z,53.10
2019-01-09T10:57:04.148Z,50.60
2019-01-09T10:59:33.580Z,52.30
2019-01-09T11:02:02.979Z,52.80
2019-01-09T11:04:32.854Z,52.10
2019-01-09T11:07:05.390Z,52.00
2019-01-09T11:09:34.865Z,51.60
2019-01-09T11:12:04.517Z,51.30
2019-01-09T11:14:33.936Z,51.50
2019-01-09T11:17:03.274Z,51.60
2019-01-09T11:19:32.653Z,52.30
2019-01-09T11:22:01.984Z,53.20
2019-01-09T11:24:31.295Z,52.70
2019-01-09T11:27:03.807Z,51.70
2019-01-09T11:29:33.232Z,51.00
2019-01-09T11:32:02.575Z,52.50
2019-01-09T11:34:31.967Z,52.40
2019-01-09T11:37:01.347Z,52.10
2019-01-09T11:39:30.787Z,52.60
2019-01-09T11:42:00.271Z,52.60
2019-01-09T11:44:29.620Z,52.00
2019-01-09T11:46:58.967Z,52.10
2019-01-09T11:49:28.441Z,52.10
2019-01-09T11:51:57.800Z,51.90
2019-01-09T11:54:27.212Z,52.50
2019-01-09T11:56:56.637Z,52.60
2019-01-09T11:59:25.972Z,52.80
2019-01-09T12:01:55.309Z,52.40
2019-01-09T12:04:24.748Z,52.50
2019-01-09T12:06:54.222Z,52.30
2019-01-09T12:09:23.639Z,52.00
2019-01-09T12:11:53.115Z,51.80
2019-01-09T12:14:22.545Z,51.60
2019-01-09T12:16:51.887Z,50.70
2019-01-09T12:19:21.499Z,51.00
2019-01-09T12:21:50.961Z,50.40
2019-01-09T12:24:20.312Z,50.70
2019-01-09T12:26:50.014Z,51.00
2019-01-09T12:29:19.850Z,50.00
2019-01-09T12:31:49.277Z,49.40
2019-01-09T12:34:18.682Z,48.40
2019-01-09T12:36:48.021Z,49.10
2019-01-09T12:39:17.401Z,48.90
2019-01-09T12:41:47.966Z,48.90
2019-01-09T12:44:17.360Z,48.50
2019-01-09T12:46:46.704Z,47.10
2019-01-09T12:49:16.129Z,47.80
2019-01-09T12:51:45.445Z,47.40
2019-01-09T12:54:14.809Z,47.70
2019-01-09T12:56:44.190Z,48.00
2019-01-09T12:59:21.427Z,46.30
2019-01-09T13:01:44.578Z,46.40
2019-01-09T13:04:13.994Z,47.10
2019-01-09T13:06:43.373Z,48.00
2019-01-09T13:09:12.712Z,47.50
2019-01-09T13:11:42.117Z,46.50
2019-01-09T13:14:11.449Z,47.60
2019-01-09T13:16:47.613Z,47.00
2019-01-09T13:19:12.006Z,46.70
2019-01-09T13:21:41.418Z,47.00
2019-01-09T13:24:10.840Z,47.10
2019-01-09T13:26:40.209Z,47.20
2019-01-09T13:29:09.622Z,47.00
2019-01-09T13:31:39.037Z,46.90
2019-01-09T13:34:08.442Z,46.70
2019-01-09T13:36:37.781Z,46.30
2019-01-09T13:39:09.324Z,46.30
2019-01-09T13:41:38.740Z,46.90
2019-01-09T13:44:08.109Z,46.80
2019-01-09T13:46:37.448Z,46.70
2019-01-09T13:49:06.836Z,46.50
2019-01-09T13:51:36.172Z,46.00
2019-01-09T13:54:05.688Z,46.50
2019-01-09T13:56:35.127Z,46.80
2019-01-09T13:59:04.532Z,46.00
2019-01-09T14:01:33.915Z,45.60
2019-01-09T14:04:03.388Z,45.60
2019-01-09T14:06:32.714Z,45.80
2019-01-09T14:09:02.102Z,46.60
2019-01-09T14:11:31.561Z,46.40
2019-01-09T14:14:01.082Z,46.60
2019-01-09T14:16:30.519Z,46.40
2019-01-09T14:18:59.958Z,46.00
2019-01-09T14:21:29.320Z,45.60
2019-01-09T14:23:58.683Z,45.40
2019-01-09T14:26:28.153Z,45.80
2019-01-09T14:28:57.500Z,46.30
2019-01-09T14:31:26.893Z,46.30
2019-01-09T14:33:56.343Z,46.20
2019-01-09T14:36:25.696Z,46.30
2019-01-09T14:38:55.026Z,46.50
2019-01-09T14:41:24.422Z,46.40
2019-01-09T14:43:53.829Z,46.30
2019-01-09T14:46:23.266Z,45.60
2019-01-09T14:48:52.754Z,45.10
2019-01-09T14:51:22.080Z,45.40
2019-01-09T14:53:51.410Z,45.60
2019-01-09T14:56:20.827Z,45.50
2019-01-09T14:58:50.233Z,45.70
2019-01-09T15:01:19.649Z,45.80
2019-01-09T15:03:49.097Z,45.90
2019-01-09T15:06:18.511Z,45.70
2019-01-09T15:08:47.876Z,45.60
2019-01-09T15:11:17.316Z,44.70
2019-01-09T15:13:46.716Z,45.20
2019-01-09T15:16:16.073Z,45.10
2019-01-09T15:18:45.468Z,44.90
2019-01-09T15:21:14.908Z,45.10
2019-01-09T15:23:44.340Z,45.10
2019-01-09T15:26:13.775Z,44.30
2019-01-09T15:28:43.129Z,44.20
2019-01-09T15:31:12.569Z,43.90
2019-01-09T15:33:42.004Z,44.10
2019-01-09T15:36:11.401Z,43.10
2019-01-09T15:38:40.785Z,42.70
2019-01-09T15:41:10.253Z,43.00
2019-01-09T15:43:39.599Z,42.60
2019-01-09T15:46:08.953Z,42.40
2019-01-09T15:48:38.446Z,42.30
2019-01-09T15:51:07.863Z,42.10
2019-01-09T15:53:37.329Z,42.00
2019-01-09T15:56:06.801Z,41.80
2019-01-09T15:58:36.204Z,41.80
2019-01-09T16:01:05.570Z,41.90
2019-01-09T16:03:35.041Z,41.60
2019-01-09T16:06:04.624Z,41.80
2019-01-09T16:08:35.179Z,41.60
2019-01-09T16:11:04.831Z,41.50
2019-01-09T16:13:34.230Z,41.30
2019-01-09T16:16:03.617Z,41.20
2019-01-09T16:18:33.113Z,41.30
2019-01-09T16:21:02.529Z,42.10
2019-01-09T16:23:32.132Z,40.90
2019-01-09T16:26:01.523Z,40.40
2019-01-09T16:28:30.896Z,39.90
2019-01-09T16:31:09.106Z,39.60
2019-01-09T16:33:38.517Z,39.20
2019-01-09T16:36:08.075Z,39.20
2019-01-09T16:38:37.469Z,39.20
2019-01-09T16:41:06.795Z,39.50
2019-01-09T16:43:36.221Z,39.30
2019-01-09T16:46:06.585Z,39.00
2019-01-09T16:48:36.017Z,39.60
2019-01-09T16:51:05.849Z,40.50
2019-01-09T16:53:38.370Z,39.70
2019-01-09T16:56:08.483Z,39.50
2019-01-09T16:58:38.004Z,39.00
2019-01-09T17:01:08.028Z,39.00
2019-01-09T17:03:37.457Z,39.30
2019-01-09T17:06:07.532Z,39.40
2019-01-09T17:08:37.119Z,39.20
2019-01-09T17:11:09.587Z,39.20
2019-01-09T17:13:38.982Z,38.60
2019-01-09T17:16:08.481Z,38.90
2019-01-09T17:18:37.889Z,38.70
2019-01-09T17:21:07.421Z,38.60
2019-01-09T17:23:40.298Z,38.60
2019-01-09T17:26:09.735Z,38.50
2019-01-09T17:28:39.168Z,38.10
2019-01-09T17:31:11.854Z,38.10
2019-01-09T17:33:41.271Z,38.20
2019-01-09T17:36:10.655Z,38.10
2019-01-09T17:38:40.163Z,38.10
2019-01-09T17:41:09.594Z,38.00
2019-01-09T17:43:38.973Z,38.00
2019-01-09T17:46:11.665Z,38.40
2019-01-09T17:48:41.046Z,38.40
2019-01-09T17:51:10.457Z,37.80
2019-01-09T17:53:39.973Z,37.70
2019-01-09T17:56:09.393Z,37.90
2019-01-09T17:58:38.829Z,37.70
2019-01-09T18:01:11.467Z,38.30
2019-01-09T18:03:40.880Z,37.50
2019-01-09T18:06:10.298Z,37.30
2019-01-09T18:08:40.295Z,37.30
2019-01-09T18:11:12.908Z,37.50
2019-01-09T18:13:42.313Z,37.40
2019-01-09T18:16:11.778Z,36.60
2019-01-09T18:18:41.200Z,36.90
2019-01-09T18:21:10.684Z,36.90
2019-01-09T18:23:43.467Z,37.30
2019-01-09T18:26:12.898Z,37.40
2019-01-09T18:28:42.324Z,37.20
2019-01-09T18:31:45.366Z,37.30
2019-01-09T18:34:25.839Z,37.10
2019-01-09T18:37:14.784Z,37.10
2019-01-09T18:40:01.307Z,37.00
2019-01-09T18:43:20.087Z,36.80
2019-01-09T18:46:14.711Z,36.60
2019-01-09T18:49:21.897Z,36.10
2019-01-09T18:52:37.249Z,35.90
2019-01-09T18:55:07.911Z,36.50
2019-01-09T18:57:37.341Z,36.40
2019-01-09T19:00:11.745Z,36.50
2019-01-09T19:02:41.235Z,37.10
2019-01-09T19:05:10.952Z,36.50
2019-01-09T19:07:41.991Z,36.10
2019-01-09T19:10:18.813Z,35.50
2019-01-09T19:12:52.328Z,35.60
2019-01-09T19:15:21.714Z,35.50
2019-01-09T19:17:51.115Z,35.60
2019-01-09T19:20:20.623Z,35.80
2019-01-09T19:22:50.626Z,35.70
2019-01-09T19:25:20.061Z,35.50
2019-01-09T19:27:53.024Z,35.20
2019-01-09T19:30:28.038Z,35.00
2019-01-09T19:33:00.819Z,34.90
2019-01-09T19:35:30.463Z,35.20
2019-01-09T19:37:59.908Z,35.30
2019-01-09T19:40:29.397Z,35.20
2019-01-09T19:42:58.881Z,35.10
2019-01-09T19:45:28.289Z,34.80
2019-01-09T19:47:57.773Z,34.80
2019-01-09T19:50:27.243Z,35.00
2019-01-09T19:52:56.704Z,34.80
2019-01-09T19:55:26.321Z,34.50
2019-01-09T19:57:55.650Z,35.00
2019-01-09T20:00:26.790Z,34.60
2019-01-09T20:02:56.261Z,34.60
2019-01-09T20:05:25.760Z,34.50
2019-01-09T20:07:55.141Z,34.70
2019-01-09T20:10:27.280Z,34.30
2019-01-09T20:12:56.825Z,34.30
2019-01-09T20:15:26.253Z,34.50
2019-01-09T20:17:55.893Z,34.00
2019-01-09T20:20:25.888Z,34.10
2019-01-09T20:22:55.365Z,34.60
2019-01-09T20:25:25.175Z,34.50
2019-01-09T20:27:54.571Z,34.90
2019-01-09T20:30:26.639Z,34.60
2019-01-09T20:32:56.212Z,34.20
2019-01-09T20:35:27.394Z,34.30
2019-01-09T20:37:57.395Z,34.20
2019-01-09T20:40:27.310Z,34.40
2019-01-09T20:42:57.123Z,34.50
2019-01-09T20:45:26.501Z,34.40
2019-01-09T20:47:55.959Z,34.50
2019-01-09T20:50:28.449Z,34.60
2019-01-09T20:52:57.916Z,34.40
2019-01-09T20:55:27.323Z,34.00
2019-01-09T20:57:56.754Z,34.20
2019-01-09T21:00:30.640Z,34.30
2019-01-09T21:03:08.795Z,34.30
2019-01-09T21:05:44.307Z,34.20
2019-01-09T21:08:13.871Z,34.60
2019-01-09T21:10:43.270Z,34.50
2019-01-09T21:13:12.803Z,34.00
2019-01-09T21:15:42.533Z,34.40
2019-01-09T21:18:12.045Z,34.30
2019-01-09T21:20:41.498Z,33.80
2019-01-09T21:23:10.862Z,34.20
2019-01-09T21:25:40.220Z,33.20
2019-01-09T21:28:09.705Z,33.30
2019-01-09T21:30:39.022Z,33.10
2019-01-09T21:33:08.510Z,32.70
2019-01-09T21:35:37.926Z,33.00
2019-01-09T21:38:07.861Z,32.90
2019-01-09T21:40:37.399Z,33.20
2019-01-09T21:43:06.958Z,33.20
2019-01-09T21:45:36.308Z,33.30
2019-01-09T21:48:05.851Z,33.00
2019-01-09T21:50:35.221Z,33.00
2019-01-09T21:53:04.785Z,33.30
2019-01-09T21:55:34.226Z,33.10
2019-01-09T21:58:03.656Z,33.30
2019-01-09T22:00:33.025Z,33.40
2019-01-09T22:03:02.450Z,33.00
2019-01-09T22:05:31.934Z,32.80
2019-01-09T22:08:01.362Z,32.80
2019-01-09T22:10:33.773Z,33.00
2019-01-09T22:13:03.183Z,33.40
2019-01-09T22:15:32.662Z,33.70
2019-01-09T22:18:02.026Z,34.20
2019-01-09T22:20:31.497Z,34.30
2019-01-09T22:23:00.872Z,34.50
2019-01-09T22:25:30.206Z,34.70
2019-01-09T22:28:00.491Z,35.00
2019-01-09T22:30:30.220Z,35.30
2019-01-09T22:32:59.529Z,35.40
2019-01-09T22:35:28.955Z,35.00
2019-01-09T22:37:58.375Z,35.10
2019-01-09T22:40:27.782Z,35.50
2019-01-09T22:42:57.221Z,35.60
2019-01-09T22:45:26.646Z,35.50
2019-01-09T22:47:56.103Z,35.60
2019-01-09T22:50:25.676Z,35.60
2019-01-09T22:52:55.110Z,35.70
2019-01-09T22:55:24.465Z,35.90
2019-01-09T22:57:53.964Z,36.00
2019-01-09T23:00:51.553Z,35.90
2019-01-09T23:03:21.275Z,35.90
2019-01-09T23:05:50.689Z,36.50
2019-01-09T23:08:20.053Z,36.00
2019-01-09T23:10:54.392Z,36.10
2019-01-09T23:13:20.669Z,36.10
2019-01-09T23:15:50.538Z,36.30
2019-01-09T23:18:20.176Z,36.30
2019-01-09T23:20:49.736Z,36.50
2019-01-09T23:23:19.407Z,36.70
2019-01-09T23:25:48.832Z,36.90
2019-01-09T23:28:18.292Z,37.30
2019-01-09T23:30:47.625Z,37.60
2019-01-09T23:33:17.421Z,37.90
2019-01-09T23:35:46.870Z,38.10
2019-01-09T23:38:16.457Z,38.20
2019-01-09T23:40:46.070Z,38.20
2019-01-09T23:43:15.508Z,38.10
2019-01-09T23:45:44.926Z,38.80
2019-01-09T23:48:14.354Z,38.40
2019-01-09T23:50:43.785Z,38.30
2019-01-09T23:53:13.121Z,38.30
2019-01-09T23:55:42.501Z,38.50
2019-01-09T23:58:11.854Z,38.60
